Time;durP1;ratioP1;P1;durP2;ratioP2;P2;SDS_P1;SDS_P2;PMS_P1;PMS_P2;Temp;Humidity;BMP_temperature;BMP_pressure;BME280_temperature;BME280_humidity;BME280_pressure;Samples;Min_cycle;Max_cycle;Signal;HPM_P1;HPM_P2
2023/05/01 00:01:29;;;;;;;11.45;3.72;;;;;;;9.60;100.00;101385.84;5007221;28;20072;-76
2023/05/01 00:03:55;;;;;;;9.25;4.00;;;;;;;9.55;100.00;101378.69;4994982;28;20054;-77
2023/05/01 00:06:22;;;;;;;10.45;4.05;;;;;;;9.50;100.00;101375.50;4995160;28;20093;-78
2023/05/01 00:08:49;;;;;;;11.82;4.50;;;;;;;9.50;100.00;101373.53;4996503;28;20054;-77
2023/05/01 00:11:16;;;;;;;10.77;3.85;;;;;;;9.49;100.00;101373.94;4985202;28;20055;-76
2023/05/01 00:13:42;;;;;;;11.20;4.38;;;;;;;9.47;100.00;101365.19;4986475;28;20054;-76
2023/05/01 00:16:10;;;;;;;11.85;4.38;;;;;;;9.42;100.00;101360.81;4985355;28;20050;-78
2023/05/01 00:18:38;;;;;;;13.35;4.20;;;;;;;9.40;100.00;101360.44;4984514;28;20498;-77
2023/05/01 00:21:04;;;;;;;13.55;3.67;;;;;;;9.41;100.00;101358.44;4987584;28;20086;-76
2023/05/01 00:23:31;;;;;;;13.40;5.15;;;;;;;9.33;100.00;101349.31;4992225;28;20046;-76
2023/05/01 00:25:57;;;;;;;12.40;4.53;;;;;;;9.31;100.00;101351.69;4990651;28;20045;-77
2023/05/01 00:28:24;;;;;;;12.88;4.00;;;;;;;9.27;100.00;101345.34;4988451;28;20560;-76
2023/05/01 00:30:51;;;;;;;14.13;4.60;;;;;;;9.25;100.00;101353.25;4984298;28;20046;-77
2023/05/01 00:33:17;;;;;;;12.20;4.32;;;;;;;9.21;100.00;101346.91;4986059;28;20121;-77
2023/05/01 00:35:44;;;;;;;13.77;4.85;;;;;;;9.11;100.00;101336.56;5003134;28;20492;-76
2023/05/01 00:38:11;;;;;;;11.82;4.38;;;;;;;9.10;100.00;101337.78;4989492;28;20065;-76
2023/05/01 00:40:45;;;;;;;13.20;4.45;;;;;;;9.05;100.00;101331.81;4996241;28;20393;-76
2023/05/01 00:43:12;;;;;;;10.40;4.07;;;;;;;9.05;100.00;101337.38;5001957;28;20523;-76
2023/05/01 00:45:42;;;;;;;11.77;4.47;;;;;;;9.02;100.00;101338.16;4997255;28;20133;-75
2023/05/01 00:48:08;;;;;;;11.13;4.60;;;;;;;8.99;100.00;101327.84;4990104;28;20053;-75
2023/05/01 00:50:36;;;;;;;10.65;4.38;;;;;;;8.94;100.00;101322.66;5003833;28;20125;-76
2023/05/01 00:53:03;;;;;;;9.27;3.88;;;;;;;8.88;100.00;101324.25;5001790;28;20092;-76
2023/05/01 00:55:31;;;;;;;12.70;4.78;;;;;;;8.84;100.00;101323.41;5000146;28;20045;-76
2023/05/01 00:57:59;;;;;;;13.43;4.47;;;;;;;8.78;100.00;101311.91;4989532;28;20054;-77
2023/05/01 01:00:28;;;;;;;13.90;4.38;;;;;;;8.76;100.00;101317.06;4987831;28;20046;-78
2023/05/01 01:02:55;;;;;;;11.52;4.55;;;;;;;8.72;100.00;101309.91;4984840;28;20501;-78
2023/05/01 01:05:24;;;;;;;11.02;4.45;;;;;;;8.68;100.00;101303.56;5006391;28;20050;-77
2023/05/01 01:07:57;;;;;;;9.35;3.83;;;;;;;8.57;100.00;101297.94;4996723;28;20137;-76
2023/05/01 01:10:49;;;;;;;14.85;4.72;;;;;;;8.56;100.00;101299.13;4990670;28;20060;-79
2023/05/01 01:13:31;;;;;;;14.05;4.70;;;;;;;8.52;100.00;101297.53;5002583;28;20732;-76
2023/05/01 01:15:58;;;;;;;12.27;4.93;;;;;;;8.50;100.00;101295.16;4989916;28;20057;-76
2023/05/01 01:18:39;;;;;;;16.20;4.32;;;;;;;8.47;100.00;101295.16;4996405;28;20049;-77
2023/05/01 01:21:10;;;;;;;12.35;4.45;;;;;;;8.45;100.00;101294.72;4982888;28;20576;-78
2023/05/01 01:23:45;;;;;;;11.65;4.60;;;;;;;8.38;100.00;101295.50;4985456;28;20048;-77
2023/05/01 01:26:15;;;;;;;;;;;;;;;8.35;100.00;101287.16;4988919;28;20062;-77
2023/05/01 01:29:03;;;;;;;15.30;4.78;;;;;;;8.29;100.00;101288.72;4994724;28;19997;-77
2023/05/01 01:31:46;;;;;;;12.43;4.68;;;;;;;8.20;100.00;101277.19;4989918;28;20050;-76
2023/05/01 01:34:18;;;;;;;14.02;4.60;;;;;;;8.15;100.00;101277.56;4982431;28;20062;-76
2023/05/01 01:37:29;;;;;;;11.80;4.47;;;;;;;8.10;100.00;101281.47;4973347;28;20046;-76
2023/05/01 01:40:04;;;;;;;11.90;4.82;;;;;;;8.10;100.00;101280.72;4991693;28;20050;-76
2023/05/01 01:42:39;;;;;;;13.35;5.85;;;;;;;8.02;100.00;101270.75;4979787;28;20077;-76
2023/05/01 01:45:18;;;;;;;15.27;4.45;;;;;;;7.99;100.00;101280.63;4996565;28;20068;-79
2023/05/01 01:47:47;;;;;;;13.02;4.55;;;;;;;7.95;100.00;101267.94;4985717;28;20168;-75
2023/05/01 01:50:16;;;;;;;15.93;4.95;;;;;;;7.94;100.00;101277.44;4996040;28;20138;-76
2023/05/01 01:52:46;;;;;;;11.75;4.45;;;;;;;7.88;100.00;101267.91;4987838;28;20331;-75
2023/05/01 01:55:15;;;;;;;13.73;4.97;;;;;;;7.86;100.00;101267.50;4997299;28;20078;-76
2023/05/01 01:57:45;;;;;;;10.27;4.28;;;;;;;7.81;100.00;101256.78;4997713;28;20073;-79
2023/05/01 02:00:15;;;;;;;13.07;4.85;;;;;;;7.82;100.00;101258.38;4990096;28;20612;-79
2023/05/01 02:02:43;;;;;;;14.80;4.32;;;;;;;7.81;100.00;101251.25;4991458;28;20152;-76
2023/05/01 02:05:15;;;;;;;13.73;5.15;;;;;;;7.73;100.00;101242.09;4988467;28;20046;-77
2023/05/01 02:07:44;;;;;;;12.05;5.25;;;;;;;7.78;100.00;101246.47;5002418;28;20054;-75
2023/05/01 02:10:12;;;;;;;13.23;5.35;;;;;;;7.77;100.00;101239.38;5000887;28;20054;-75
2023/05/01 02:12:45;;;;;;;15.75;4.53;;;;;;;7.81;100.00;101245.72;5001015;28;20050;-76
2023/05/01 02:15:14;;;;;;;13.77;5.05;;;;;;;7.83;100.00;101246.13;5003258;28;20468;-77
2023/05/01 02:17:41;;;;;;;10.65;4.82;;;;;;;7.84;100.00;101236.63;5001452;28;20088;-76
2023/05/01 02:20:11;;;;;;;11.93;4.65;;;;;;;7.86;100.00;101231.53;5004333;28;20050;-76
2023/05/01 02:22:42;;;;;;;14.88;5.40;;;;;;;7.89;100.00;101225.19;5000855;28;20056;-76
2023/05/01 02:25:11;;;;;;;12.85;5.10;;;;;;;7.93;100.00;101232.34;5000828;28;20071;-76
2023/05/01 02:27:43;;;;;;;15.02;4.95;;;;;;;7.97;100.00;101219.28;5009112;28;20050;-76
2023/05/01 02:30:11;;;;;;;12.88;5.38;;;;;;;8.00;100.00;101226.06;5000526;28;20053;-75
2023/05/01 02:32:37;;;;;;;15.38;5.72;;;;;;;8.03;100.00;101223.28;4998916;28;20045;-78
2023/05/01 02:35:04;;;;;;;14.77;4.65;;;;;;;8.06;100.00;101208.66;5008397;28;20248;-75
2023/05/01 02:37:31;;;;;;;13.10;5.00;;;;;;;8.10;100.00;101211.47;4992432;28;20509;-78
2023/05/01 02:39:58;;;;;;;14.38;4.80;;;;;;;8.12;100.00;101212.66;5008521;28;20092;-75
2023/05/01 02:42:27;;;;;;;12.73;4.95;;;;;;;8.13;100.00;101210.69;5007305;28;20103;-75
2023/05/01 02:45:00;;;;;;;13.45;4.20;;;;;;;8.15;100.00;101211.09;5008574;28;20440;-75
2023/05/01 02:47:31;;;;;;;13.68;4.97;;;;;;;8.20;100.00;101205.19;4989773;28;20152;-77
2023/05/01 02:49:58;;;;;;;16.50;5.53;;;;;;;8.22;100.00;101202.81;4985496;28;20710;-75
2023/05/01 02:52:25;;;;;;;11.98;4.80;;;;;;;8.20;100.00;101197.66;4997600;28;20050;-78
2023/05/01 02:54:51;;;;;;;10.25;4.47;;;;;;;8.23;100.00;101202.41;4984144;28;20054;-75
2023/05/01 02:57:19;;;;;;;16.00;5.18;;;;;;;8.21;100.00;101193.72;4997349;28;20046;-76
2023/05/01 02:59:45;;;;;;;11.23;4.72;;;;;;;8.20;100.00;101191.34;5007747;28;20060;-76
2023/05/01 03:02:12;;;;;;;14.32;5.10;;;;;;;8.15;100.00;101186.97;5002423;28;20551;-76
2023/05/01 03:04:38;;;;;;;14.60;4.93;;;;;;;8.20;100.00;101188.56;4988290;28;20149;-76
2023/05/01 03:07:05;;;;;;;13.13;4.95;;;;;;;8.17;100.00;101181.81;5004099;28;20500;-76
2023/05/01 03:09:31;;;;;;;14.55;5.00;;;;;;;8.22;100.00;101177.88;4992324;28;20049;-76
2023/05/01 03:11:58;;;;;;;12.90;5.45;;;;;;;8.27;100.00;101174.75;5008360;28;20063;-77
2023/05/01 03:14:27;;;;;;;12.68;5.18;;;;;;;8.27;100.00;101174.75;4991145;28;21785;-76
2023/05/01 03:16:54;;;;;;;19.48;5.82;;;;;;;8.28;100.00;101171.59;4996659;28;20051;-75
2023/05/01 03:19:21;;;;;;;15.05;5.25;;;;;;;8.26;100.00;101165.63;4994190;28;20569;-76
2023/05/01 03:21:47;;;;;;;12.40;5.05;;;;;;;8.29;100.00;101156.53;5002552;28;20069;-76
2023/05/01 03:24:14;;;;;;;14.20;5.18;;;;;;;8.31;100.00;101161.69;5004278;28;20061;-76
2023/05/01 03:26:40;;;;;;;15.63;5.55;;;;;;;8.30;100.00;101160.88;4993946;28;20386;-77
2023/05/01 03:29:07;;;;;;;15.23;5.32;;;;;;;8.34;100.00;101164.44;5004407;28;20080;-76
2023/05/01 03:31:34;;;;;;;14.18;5.28;;;;;;;8.33;100.00;101156.53;5007857;28;20053;-76
2023/05/01 03:34:01;;;;;;;14.55;4.85;;;;;;;8.33;100.00;101159.31;5007128;28;20100;-76
2023/05/01 03:36:27;;;;;;;11.82;4.97;;;;;;;8.36;100.00;101161.28;4997500;28;20057;-76
2023/05/01 03:38:54;;;;;;;12.75;4.82;;;;;;;8.36;100.00;101159.31;4991713;28;20058;-76
2023/05/01 03:41:20;;;;;;;12.40;5.25;;;;;;;8.39;100.00;101155.78;4997135;28;20062;-76
2023/05/01 03:43:47;;;;;;;13.93;5.63;;;;;;;8.35;100.00;101151.41;5007625;28;20058;-76
2023/05/01 03:46:13;;;;;;;17.13;5.15;;;;;;;8.34;100.00;101149.81;5007288;28;20155;-76
2023/05/01 03:48:40;;;;;;;15.32;5.72;;;;;;;8.41;100.00;101147.84;5007306;28;20480;-76
2023/05/01 03:51:06;;;;;;;12.48;4.78;;;;;;;8.41;100.00;101139.53;5003259;28;20092;-76
2023/05/01 03:53:33;;;;;;;13.70;5.88;;;;;;;8.41;100.00;101142.31;4989541;28;20061;-76
2023/05/01 03:55:59;;;;;;;15.55;4.70;;;;;;;8.41;100.00;101141.53;4998858;28;20061;-75
2023/05/01 03:58:26;;;;;;;12.35;5.07;;;;;;;8.39;100.00;101132.81;5007536;28;20061;-77
2023/05/01 04:00:55;;;;;;;14.18;5.07;;;;;;;8.39;100.00;101133.59;5011112;28;20121;-79
2023/05/01 04:03:22;;;;;;;16.23;5.65;;;;;;;8.39;100.00;101133.59;5011350;28;20073;-75
2023/05/01 04:05:49;;;;;;;14.75;5.38;;;;;;;8.44;100.00;101140.75;5011349;28;20065;-76
2023/05/01 04:08:15;;;;;;;14.02;6.00;;;;;;;8.41;100.00;101134.00;5010692;28;20054;-76
2023/05/01 04:10:42;;;;;;;17.92;5.47;;;;;;;8.40;100.00;101135.19;4998647;28;20058;-77
2023/05/01 04:13:09;;;;;;;17.60;5.53;;;;;;;8.36;100.00;101131.63;5010491;28;20054;-77
2023/05/01 04:15:36;;;;;;;16.10;5.63;;;;;;;8.39;100.00;101133.59;5005422;28;20084;-78
2023/05/01 04:18:03;;;;;;;11.60;4.75;;;;;;;8.39;100.00;101136.38;5011124;28;20520;-78
2023/05/01 04:20:30;;;;;;;16.95;5.53;;;;;;;8.39;100.00;101127.25;5000736;28;20045;-78
2023/05/01 04:22:56;;;;;;;18.02;5.68;;;;;;;8.34;100.00;101122.13;5003611;28;20063;-77
2023/05/01 04:25:23;;;;;;;13.25;4.65;;;;;;;8.38;100.00;101126.50;5011154;28;20333;-77
2023/05/01 04:27:49;;;;;;;11.95;5.22;;;;;;;8.38;100.00;101128.47;4997162;28;20053;-76
2023/05/01 04:30:16;;;;;;;13.35;5.03;;;;;;;8.38;100.00;101125.69;5003971;28;20046;-76
2023/05/01 04:32:42;;;;;;;11.32;4.68;;;;;;;8.38;100.00;101125.69;5010600;28;20058;-77
2023/05/01 04:35:11;;;;;;;15.23;4.93;;;;;;;8.34;100.00;101113.81;5003513;28;20159;-77
2023/05/01 04:37:37;;;;;;;11.88;4.70;;;;;;;8.38;100.00;101120.94;5010673;28;20046;-76
2023/05/01 04:40:04;;;;;;;11.50;5.05;;;;;;;8.39;100.00;101124.50;5009335;28;20061;-77
2023/05/01 04:42:31;;;;;;;12.57;5.18;;;;;;;8.36;100.00;101112.22;5010187;28;20057;-76
2023/05/01 04:45:02;;;;;;;14.70;5.57;;;;;;;8.39;100.00;101118.94;5004712;28;20053;-77
2023/05/01 04:47:29;;;;;;;14.45;4.35;;;;;;;8.40;100.00;101115.78;5003380;28;20105;-78
2023/05/01 04:49:56;;;;;;;14.32;5.43;;;;;;;8.39;100.00;101122.53;5005851;28;20061;-77
2023/05/01 04:52:23;;;;;;;13.93;5.45;;;;;;;8.39;100.00;101122.53;4991062;28;20057;-77
2023/05/01 04:54:50;;;;;;;14.00;4.63;;;;;;;8.38;100.00;101126.50;4994179;28;20062;-77
2023/05/01 04:57:16;;;;;;;14.05;4.88;;;;;;;8.40;100.00;101117.75;5010264;28;20053;-76
2023/05/01 04:59:43;;;;;;;14.07;5.10;;;;;;;8.40;100.00;101123.31;5000351;28;20053;-77
2023/05/01 05:02:09;;;;;;;12.25;4.80;;;;;;;8.40;100.00;101120.53;5009931;28;20058;-79
2023/05/01 05:04:36;;;;;;;17.77;5.72;;;;;;;8.42;100.00;101118.97;5000062;28;20128;-76
2023/05/01 05:07:03;;;;;;;14.38;5.07;;;;;;;8.43;100.00;101116.97;5006088;28;20049;-78
2023/05/01 05:09:29;;;;;;;12.80;5.10;;;;;;;8.44;100.00;101122.13;5009737;28;20515;-77
2023/05/01 05:11:56;;;;;;;12.13;4.93;;;;;;;8.42;100.00;101113.44;5010235;28;20050;-77
2023/05/01 05:14:22;;;;;;;13.13;5.18;;;;;;;8.44;100.00;101118.59;4987611;28;20057;-78
2023/05/01 05:16:48;;;;;;;13.73;4.88;;;;;;;8.46;100.00;101130.03;5010271;28;20057;-76
2023/05/01 05:19:15;;;;;;;14.77;5.07;;;;;;;8.45;100.00;101118.19;4987535;28;20058;-78
2023/05/01 05:21:42;;;;;;;15.10;5.20;;;;;;;8.50;100.00;101119.75;4994366;28;20062;-76
2023/05/01 05:24:08;;;;;;;18.27;5.75;;;;;;;8.51;100.00;101122.13;4990581;28;20423;-77
2023/05/01 05:26:35;;;;;;;13.40;5.50;;;;;;;8.54;100.00;101123.34;5009649;28;20050;-76
2023/05/01 05:29:01;;;;;;;15.57;5.18;;;;;;;8.58;100.00;101119.38;5009742;28;20049;-78
2023/05/01 05:31:28;;;;;;;15.35;5.22;;;;;;;8.62;100.00;101119.41;4993041;28;20594;-76
2023/05/01 05:33:55;;;;;;;17.08;5.65;;;;;;;8.64;100.00;101120.59;4999398;28;20054;-78
2023/05/01 05:36:21;;;;;;;14.43;5.72;;;;;;;8.69;100.00;101113.88;4982296;28;20061;-76
2023/05/01 05:38:48;;;;;;;13.90;5.68;;;;;;;8.78;100.00;101123.38;4999185;28;20065;-78
2023/05/01 05:41:14;;;;;;;14.68;5.78;;;;;;;8.85;100.00;101117.06;5005492;28;20054;-76
2023/05/01 05:43:41;;;;;;;17.15;6.57;;;;;;;8.88;100.00;101111.50;4995333;28;20048;-75
2023/05/01 05:46:07;;;;;;;16.17;5.45;;;;;;;8.94;100.00;101120.22;5008575;28;20054;-75
2023/05/01 05:48:34;;;;;;;14.27;5.60;;;;;;;9.02;100.00;101119.81;4991723;28;20060;-77
2023/05/01 05:51:01;;;;;;;15.48;5.80;;;;;;;9.12;100.00;101109.91;4993349;28;20420;-77
2023/05/01 05:53:27;;;;;;;16.10;5.63;;;;;;;9.19;100.00;101110.69;4998727;28;20473;-77
2023/05/01 05:55:54;;;;;;;15.98;6.28;;;;;;;9.23;100.00;101105.13;5000453;28;20050;-76
2023/05/01 05:58:21;;;;;;;15.05;5.95;;;;;;;9.30;100.00;101110.66;5005761;28;20046;-77
2023/05/01 06:00:49;;;;;;;17.67;8.10;;;;;;;9.34;100.00;101103.94;4991518;28;20078;-75
2023/05/01 06:03:15;;;;;;;17.33;5.88;;;;;;;9.43;100.00;101106.28;5004802;28;20053;-76
2023/05/01 06:05:42;;;;;;;17.67;6.95;;;;;;;9.52;100.00;101103.91;4996611;28;20239;-77
2023/05/01 06:08:09;;;;;;;17.13;5.97;;;;;;;9.57;100.00;101106.25;4992923;28;20046;-78
2023/05/01 06:10:38;;;;;;;14.20;5.68;;;;;;;9.66;100.00;101099.06;4996460;28;20046;-77
2023/05/01 06:13:07;;;;;;;16.65;6.53;;;;;;;9.73;100.00;101107.38;5006763;28;20056;-74
2023/05/01 06:15:40;;;;;;;14.00;5.90;;;;;;;9.83;100.00;101106.53;5001001;28;20050;-75
2023/05/01 06:18:07;;;;;;;14.43;6.18;;;;;;;9.91;100.00;101102.56;5002444;28;20507;-75
2023/05/01 06:20:34;;;;;;;10.90;5.40;;;;;;;9.99;100.00;101109.69;4999193;28;20049;-74
2023/05/01 06:23:00;;;;;;;15.32;6.25;;;;;;;10.05;100.00;101098.94;5001061;28;20050;-77
2023/05/01 06:25:27;;;;;;;14.45;5.68;;;;;;;10.17;100.00;101115.16;5000274;28;20042;-78
2023/05/01 06:27:53;;;;;;;15.82;5.63;;;;;;;10.23;100.00;101107.19;5007977;28;20398;-76
2023/05/01 06:30:20;;;;;;;14.02;6.03;;;;;;;10.32;100.00;101111.09;5008388;28;20528;-74
2023/05/01 06:32:48;;;;;;;14.38;5.80;;;;;;;10.42;100.00;101101.91;4996129;28;20072;-77
2023/05/01 06:35:14;;;;;;;13.27;5.82;;;;;;;10.52;100.00;101103.81;5002456;28;20548;-75
2023/05/01 06:37:41;;;;;;;16.02;5.80;;;;;;;10.58;100.00;101104.97;4992300;28;20073;-75
2023/05/01 06:40:08;;;;;;;15.18;5.32;;;;;;;10.65;100.00;101104.91;5006561;28;20057;-75
2023/05/01 06:42:36;;;;;;;16.50;5.70;;;;;;;10.74;100.00;101105.22;5003932;28;20121;-77
2023/05/01 06:45:03;;;;;;;14.13;5.75;;;;;;;10.84;100.00;101106.34;4984045;28;20054;-77
2023/05/01 06:47:30;;;;;;;13.35;5.78;;;;;;;10.94;100.00;101103.47;4998950;28;20046;-77
2023/05/01 06:49:56;;;;;;;16.50;5.40;;;;;;;11.02;100.00;101098.63;4986143;28;20127;-78
2023/05/01 06:52:24;;;;;;;13.82;5.32;;;;;;;11.14;100.00;101101.69;4982802;28;20579;-79
2023/05/01 06:54:50;;;;;;;14.38;5.55;;;;;;;11.22;100.00;101092.13;5008250;28;20054;-77
2023/05/01 06:57:17;;;;;;;15.75;6.38;;;;;;;11.33;100.00;101103.94;5004888;28;20045;-77
2023/05/01 06:59:43;;;;;;;15.82;5.63;;;;;;;11.44;100.00;101095.44;5006625;28;20140;-75
2023/05/01 07:02:10;;;;;;;15.90;5.10;;;;;;;11.54;100.00;101102.91;5001846;28;20737;-78
2023/05/01 07:04:36;;;;;;;14.68;5.30;;;;;;;11.66;100.00;101105.97;4999507;28;20112;-78
2023/05/01 07:07:03;;;;;;;13.60;5.53;;;;;;;11.75;100.00;101103.44;4977163;28;20042;-77
2023/05/01 07:09:30;;;;;;;12.68;5.43;;;;;;;11.87;100.00;101108.50;5004286;28;20057;-77
2023/05/01 07:11:57;;;;;;;13.23;5.43;;;;;;;11.92;100.00;101098.88;4990497;28;20152;-79
2023/05/01 07:14:23;;;;;;;13.55;5.40;;;;;;;12.02;100.00;101095.16;5006002;28;20053;-76
2023/05/01 07:16:50;;;;;;;13.85;5.32;;;;;;;12.16;100.00;101097.75;5004638;28;20052;-77
2023/05/01 07:19:17;;;;;;;15.15;5.80;;;;;;;12.25;100.00;101096.03;4989360;28;20278;-77
2023/05/01 07:21:43;;;;;;;14.88;5.32;;;;;;;12.34;100.00;101098.28;4990683;28;20108;-77
2023/05/01 07:24:11;;;;;;;13.38;4.93;;;;;;;12.45;100.00;101102.53;4989384;28;20494;-77
2023/05/01 07:26:37;;;;;;;12.93;5.30;;;;;;;12.57;100.00;101099.16;4991894;28;20131;-76
2023/05/01 07:29:04;;;;;;;10.98;4.97;;;;;;;12.69;100.00;101102.59;4994921;28;20065;-76
2023/05/01 07:31:30;;;;;;;13.25;5.80;;;;;;;12.77;100.00;101102.03;5007170;28;20049;-77
2023/05/01 07:33:57;;;;;;;11.20;5.20;;;;;;;12.83;100.00;101099.56;4993885;28;20069;-77
2023/05/01 07:36:24;;;;;;;15.82;5.18;;;;;;;12.92;100.00;101099.78;5000343;28;20512;-77
2023/05/01 07:38:50;;;;;;;11.35;5.40;;;;;;;13.01;100.00;101094.47;5001984;28;20056;-77
2023/05/01 07:41:16;;;;;;;16.52;5.05;;;;;;;13.14;100.00;101095.44;4998133;28;20078;-74
2023/05/01 07:43:43;;;;;;;11.13;4.82;;;;;;;13.25;100.00;101094.03;4989185;28;20054;-75
2023/05/01 07:46:10;;;;;;;12.23;4.97;;;;;;;13.33;100.00;101092.66;4999769;28;20054;-77
2023/05/01 07:48:37;;;;;;;12.15;4.65;;;;;;;13.41;100.00;101079.38;4988400;28;20505;-74
2023/05/01 07:51:04;;;;;;;9.93;4.55;;;;;;;13.54;100.00;101094.31;4984849;28;20429;-73
2023/05/01 07:53:31;;;;;;;12.45;4.60;;;;;;;13.65;100.00;101086.50;4986966;28;20051;-75
2023/05/01 07:56:08;;;;;;;10.23;4.35;;;;;;;13.82;100.00;101083.34;4982905;28;20078;-78
2023/05/01 07:58:36;;;;;;;14.88;5.85;;;;;;;13.96;100.00;101082.25;4978145;28;20046;-78
2023/05/01 08:01:02;;;;;;;13.27;4.45;;;;;;;13.99;100.00;101084.19;4993539;28;20116;-78
2023/05/01 08:03:30;;;;;;;12.13;3.92;;;;;;;14.11;100.00;101080.75;5007226;28;20050;-75
2023/05/01 08:05:57;;;;;;;13.60;4.60;;;;;;;14.30;100.00;101079.91;5006868;28;20049;-77
2023/05/01 08:08:24;;;;;;;11.70;4.47;;;;;;;14.45;100.00;101075.59;4994838;28;20054;-72
2023/05/01 08:10:51;;;;;;;8.85;3.30;;;;;;;14.48;100.00;101075.50;4991256;28;20096;-77
2023/05/01 08:13:17;;;;;;;9.48;3.78;;;;;;;14.62;100.00;101077.94;4997663;28;20050;-74
2023/05/01 08:15:46;;;;;;;6.07;3.13;;;;;;;14.68;100.00;101076.22;5002027;28;20049;-74
2023/05/01 08:18:19;;;;;;;6.43;2.80;;;;;;;14.69;100.00;101077.00;4995243;28;20104;-75
2023/05/01 08:20:47;;;;;;;9.18;2.67;;;;;;;14.80;100.00;101077.53;4986121;28;20108;-75
2023/05/01 08:23:14;;;;;;;8.88;3.83;;;;;;;14.93;100.00;101073.56;4993605;28;20054;-76
2023/05/01 08:25:41;;;;;;;4.60;1.40;;;;;;;14.76;100.00;101077.59;4999837;28;20475;-77
2023/05/01 08:28:08;;;;;;;7.47;3.20;;;;;;;14.93;100.00;101072.81;4995398;28;20420;-72
2023/05/01 08:30:35;;;;;;;7.95;2.72;;;;;;;14.98;100.00;101075.84;5005677;28;20046;-77
2023/05/01 08:33:02;;;;;;;9.10;3.28;;;;;;;15.05;100.00;101069.28;5006721;28;20523;-76
2023/05/01 08:35:29;;;;;;;7.38;2.92;;;;;;;15.08;100.00;101068.41;4992081;28;20056;-75
2023/05/01 08:37:55;;;;;;;9.10;3.20;;;;;;;15.17;100.00;101073.38;4988318;28;20416;-80
2023/05/01 08:40:22;;;;;;;8.88;3.67;;;;;;;15.19;100.00;101063.28;5011394;28;20057;-76
2023/05/01 08:42:50;;;;;;;7.68;3.17;;;;;;;15.19;100.00;101068.13;4990558;28;20054;-77
2023/05/01 08:45:17;;;;;;;9.68;3.47;;;;;;;15.36;100.00;101062.06;5004200;28;20058;-75
2023/05/01 08:47:45;;;;;;;9.25;3.20;;;;;;;15.50;100.00;101070.09;5002986;28;20056;-77
2023/05/01 08:50:12;;;;;;;6.97;3.22;;;;;;;15.65;100.00;101059.25;5006452;28;20085;-77
2023/05/01 08:52:41;;;;;;;5.65;2.45;;;;;;;15.58;100.00;101059.44;4996112;28;20085;-76
2023/05/01 08:55:19;;;;;;;8.70;3.03;;;;;;;15.70;100.00;101062.28;4988574;28;20058;-76
2023/05/01 08:57:47;;;;;;;6.50;3.30;;;;;;;15.88;100.00;101059.78;5001047;28;20053;-79
2023/05/01 09:00:20;;;;;;;9.48;3.63;;;;;;;16.06;100.00;101062.03;5007967;28;20132;-75
2023/05/01 09:02:50;;;;;;;8.13;3.38;;;;;;;16.15;99.99;101051.75;5009626;28;20054;-77
2023/05/01 09:05:18;;;;;;;9.70;3.65;;;;;;;16.31;100.00;101053.69;5009923;28;20468;-75
2023/05/01 09:07:47;;;;;;;12.57;3.60;;;;;;;16.46;100.00;101051.97;5009990;28;20054;-76
2023/05/01 09:10:17;;;;;;;10.02;3.05;;;;;;;16.54;100.00;101056.16;4987177;28;20050;-75
2023/05/01 09:12:45;;;;;;;9.43;3.15;;;;;;;16.63;100.00;101057.03;4990011;28;20054;-76
2023/05/01 09:15:12;;;;;;;10.77;3.53;;;;;;;16.41;96.88;101052.56;4998660;28;20080;-75
2023/05/01 09:17:41;;;;;;;7.47;3.53;;;;;;;16.46;98.96;101052.78;4993499;28;20145;-79
2023/05/01 09:20:09;;;;;;;7.53;3.08;;;;;;;16.54;96.42;101056.91;4990510;28;20050;-77
2023/05/01 09:22:36;;;;;;;6.88;2.83;;;;;;;16.68;98.37;101056.44;4977705;28;20062;-73
2023/05/01 09:25:03;;;;;;;8.05;3.20;;;;;;;16.92;98.43;101045.63;4989312;28;20133;-76
2023/05/01 09:27:38;;;;;;;7.72;3.20;;;;;;;17.17;98.60;101043.56;4992021;28;20129;-75
2023/05/01 09:30:06;;;;;;;;;;;;;;;17.21;98.51;101052.66;5005412;28;20046;-73
2023/05/01 09:32:33;;;;;;;8.00;3.60;;;;;;;17.31;90.86;101045.88;4977298;28;20012;-76
2023/05/01 09:35:13;;;;;;;7.90;3.22;;;;;;;17.38;92.05;101042.00;5001887;28;20055;-76
2023/05/01 09:37:40;;;;;;;11.27;3.90;;;;;;;17.47;91.74;101036.47;4994213;28;20512;-79
2023/05/01 09:40:11;;;;;;;7.05;3.13;;;;;;;17.53;91.51;101043.06;5004781;28;20054;-74
2023/05/01 09:42:52;;;;;;;7.35;3.33;;;;;;;17.59;90.28;101034.84;5006545;28;20591;-73
2023/05/01 09:45:19;;;;;;;8.95;3.30;;;;;;;17.70;90.04;101029.59;4990995;28;20054;-74
2023/05/01 09:47:46;;;;;;;7.15;3.33;;;;;;;17.88;91.27;101024.06;5006490;28;20050;-77
2023/05/01 09:50:33;;;;;;;7.35;3.00;;;;;;;17.75;84.01;101031.81;4989166;28;20109;-76
2023/05/01 09:53:00;;;;;;;8.38;3.58;;;;;;;17.97;90.69;101032.59;4996234;28;20046;-77
2023/05/01 09:55:26;;;;;;;9.02;3.72;;;;;;;18.12;83.80;101031.56;5005787;28;20402;-76
2023/05/01 09:57:53;;;;;;;0.73;0.73;;;;;;;18.04;85.06;101027.47;5002926;28;20522;-75
2023/05/01 10:00:20;;;;;;;6.90;3.35;;;;;;;18.25;82.57;101032.25;4998456;28;20042;-78
2023/05/01 10:02:48;;;;;;;0.98;0.77;;;;;;;18.00;76.28;101021.22;5003176;28;20053;-73
2023/05/01 10:05:16;;;;;;;13.13;3.05;;;;;;;18.35;80.10;101033.06;4999897;28;20042;-74
2023/05/01 10:08:04;;;;;;;9.70;3.85;;;;;;;18.36;78.96;101026.22;4996891;28;20917;-73
2023/05/01 10:10:31;;;;;;;8.63;3.22;;;;;;;18.44;77.46;101028.28;5009259;28;20041;-73
2023/05/01 10:13:13;;;;;;;6.88;2.90;;;;;;;18.64;78.31;101031.47;5002854;28;20061;-76
2023/05/01 10:15:39;;;;;;;5.85;2.80;;;;;;;18.88;78.06;101037.34;4995255;28;20049;-74
2023/05/01 10:18:09;;;;;;;7.10;2.95;;;;;;;19.01;74.54;101021.06;4995898;28;20046;-77
2023/05/01 10:20:36;;;;;;;7.72;3.00;;;;;;;19.39;74.17;101025.00;4997572;28;20425;-75
2023/05/01 10:23:03;;;;;;;5.03;2.97;;;;;;;19.67;71.44;101028.59;4997744;28;20586;-76
2023/05/01 10:25:30;;;;;;;6.50;2.92;;;;;;;19.91;70.58;101020.25;4998719;28;20046;-75
2023/05/01 10:27:58;;;;;;;5.55;2.50;;;;;;;19.92;67.31;101019.78;4991420;28;20133;-76
2023/05/01 10:30:29;;;;;;;5.63;2.28;;;;;;;20.21;66.03;101030.50;4981006;28;20046;-73
2023/05/01 10:32:57;;;;;;;3.13;1.77;;;;;;;19.49;59.58;101029.41;4982236;28;20116;-75
2023/05/01 10:35:29;;;;;;;2.08;1.00;;;;;;;19.28;61.38;101021.09;4992847;28;20074;-76
2023/05/01 10:37:55;;;;;;;3.90;1.83;;;;;;;19.18;63.32;101022.34;5003375;28;20501;-75
2023/05/01 10:40:47;;;;;;;6.03;2.85;;;;;;;19.42;64.82;101018.41;5007922;28;20624;-75
2023/05/01 10:43:26;;;;;;;4.78;2.25;;;;;;;19.43;64.74;101013.53;4991961;28;20082;-73
2023/05/01 10:46:20;;;;;;;7.82;2.60;;;;;;;19.50;62.97;101018.91;5008176;28;20141;-78
2023/05/01 10:48:56;;;;;;;10.07;2.53;;;;;;;19.73;65.33;101009.78;4972957;28;20066;-74
2023/05/01 10:51:24;;;;;;;7.57;2.75;;;;;;;19.78;64.52;101011.97;5005153;28;20516;-75
2023/05/01 10:54:11;;;;;;;3.70;2.30;;;;;;;19.92;63.71;101005.66;4991787;28;20180;-75
2023/05/01 10:56:38;;;;;;;2.70;1.90;;;;;;;19.91;63.81;101000.50;4999154;28;20054;-74
2023/05/01 10:59:04;;;;;;;6.40;2.28;;;;;;;19.69;63.02;101007.09;5001272;28;20048;-74
2023/05/01 11:01:41;;;;;;;4.85;2.13;;;;;;;19.48;61.04;101004.47;4998232;28;20635;-73
2023/05/01 11:04:20;;;;;;;3.92;2.13;;;;;;;19.58;65.04;101004.00;4990796;28;20073;-73
2023/05/01 11:07:09;;;;;;;4.65;2.42;;;;;;;19.63;63.88;101000.56;4985771;28;20109;-74
2023/05/01 11:09:53;;;;;;;6.53;2.33;;;;;;;20.00;62.90;100994.78;4986198;28;20096;-70
2023/05/01 11:12:45;;;;;;;8.50;3.80;;;;;;;20.46;63.87;100993.38;4990313;28;20150;-71
2023/05/01 11:15:24;;;;;;;7.30;2.50;;;;;;;20.66;62.28;100985.84;4999753;28;20160;-75
2023/05/01 11:17:51;;;;;;;6.30;2.13;;;;;;;20.70;61.24;100988.50;4992008;28;20134;-73
2023/05/01 11:20:24;;;;;;;4.47;2.38;;;;;;;20.64;58.71;100985.56;4999648;28;20077;-74
2023/05/01 11:22:52;;;;;;;5.05;2.17;;;;;;;20.10;56.13;100974.53;4984660;28;20910;-77
2023/05/01 11:25:19;;;;;;;6.38;2.38;;;;;;;20.29;58.65;100981.72;4996969;28;20160;-79